sensor_id;sensor_type;location;lat;lon;timestamp;temperature;humidity
60473;DHT22;46318;52.716;6.444;2024-01-30T00:01:55;5.60;100.00
60473;DHT22;46318;52.716;6.444;2024-01-30T00:04:21;5.60;100.00
60473;DHT22;46318;52.716;6.444;2024-01-30T00:06:47;5.60;100.00
60473;DHT22;46318;52.716;6.444;2024-01-30T00:09:12;5.60;100.00
60473;DHT22;46318;52.716;6.444;2024-01-30T00:11:39;5.60;100.00
60473;DHT22;46318;52.716;6.444;2024-01-30T00:14:05;5.60;100.00
60473;DHT22;46318;52.716;6.444;2024-01-30T00:16:31;5.50;100.00
60473;DHT22;46318;52.716;6.444;2024-01-30T00:18:57;5.50;100.00
60473;DHT22;46318;52.716;6.444;2024-01-30T00:21:23;5.50;100.00
60473;DHT22;46318;52.716;6.444;2024-01-30T00:23:48;5.50;100.00
60473;DHT22;46318;52.716;6.444;2024-01-30T00:26:14;5.50;100.00
60473;DHT22;46318;52.716;6.444;2024-01-30T00:28:41;5.40;100.00
60473;DHT22;46318;52.716;6.444;2024-01-30T00:31:07;5.40;100.00
60473;DHT22;46318;52.716;6.444;2024-01-30T00:33:34;5.40;100.00
60473;DHT22;46318;52.716;6.444;2024-01-30T00:36:00;5.40;100.00
60473;DHT22;46318;52.716;6.444;2024-01-30T00:38:25;5.30;100.00
60473;DHT22;46318;52.716;6.444;2024-01-30T00:40:51;5.30;100.00
60473;DHT22;46318;52.716;6.444;2024-01-30T00:43:17;5.30;100.00
60473;DHT22;46318;52.716;6.444;2024-01-30T00:45:46;5.30;100.00
60473;DHT22;46318;52.716;6.444;2024-01-30T00:48:12;5.20;100.00
60473;DHT22;46318;52.716;6.444;2024-01-30T00:50:37;5.20;100.00
60473;DHT22;46318;52.716;6.444;2024-01-30T00:53:03;5.20;100.00
60473;DHT22;46318;52.716;6.444;2024-01-30T00:55:29;5.20;100.00
60473;DHT22;46318;52.716;6.444;2024-01-30T00:57:54;5.20;100.00
60473;DHT22;46318;52.716;6.444;2024-01-30T01:00:20;5.20;100.00
60473;DHT22;46318;52.716;6.444;2024-01-30T01:02:47;5.20;100.00
60473;DHT22;46318;52.716;6.444;2024-01-30T01:05:13;5.10;100.00
60473;DHT22;46318;52.716;6.444;2024-01-30T01:07:38;5.10;100.00
60473;DHT22;46318;52.716;6.444;2024-01-30T01:10:06;5.10;100.00
60473;DHT22;46318;52.716;6.444;2024-01-30T01:12:32;5.10;100.00
60473;DHT22;46318;52.716;6.444;2024-01-30T01:14:58;5.10;100.00
60473;DHT22;46318;52.716;6.444;2024-01-30T01:17:24;5.10;100.00
60473;DHT22;46318;52.716;6.444;2024-01-30T01:19:49;5.10;100.00
60473;DHT22;46318;52.716;6.444;2024-01-30T01:22:16;5.10;100.00
60473;DHT22;46318;52.716;6.444;2024-01-30T01:24:42;5.10;100.00
60473;DHT22;46318;52.716;6.444;2024-01-30T01:27:08;5.10;100.00
60473;DHT22;46318;52.716;6.444;2024-01-30T01:29:34;5.10;100.00
60473;DHT22;46318;52.716;6.444;2024-01-30T01:31:59;5.10;100.00
60473;DHT22;46318;52.716;6.444;2024-01-30T01:34:25;5.10;100.00
60473;DHT22;46318;52.716;6.444;2024-01-30T01:36:51;5.10;100.00
60473;DHT22;46318;52.716;6.444;2024-01-30T01:39:17;5.00;100.00
60473;DHT22;46318;52.716;6.444;2024-01-30T01:41:43;5.10;100.00
60473;DHT22;46318;52.716;6.444;2024-01-30T01:44:09;5.10;100.00
60473;DHT22;46318;52.716;6.444;2024-01-30T01:46:35;5.10;100.00
60473;DHT22;46318;52.716;6.444;2024-01-30T01:49:02;5.10;100.00
60473;DHT22;46318;52.716;6.444;2024-01-30T01:51:31;5.10;100.00
60473;DHT22;46318;52.716;6.444;2024-01-30T01:54:04;5.00;100.00
60473;DHT22;46318;52.716;6.444;2024-01-30T01:56:34;5.00;100.00
60473;DHT22;46318;52.716;6.444;2024-01-30T01:59:05;5.00;100.00
60473;DHT22;46318;52.716;6.444;2024-01-30T02:01:38;5.00;100.00
60473;DHT22;46318;52.716;6.444;2024-01-30T02:04:07;5.00;100.00
60473;DHT22;46318;52.716;6.444;2024-01-30T02:06:34;5.00;100.00
60473;DHT22;46318;52.716;6.444;2024-01-30T02:09:00;5.00;100.00
60473;DHT22;46318;52.716;6.444;2024-01-30T02:11:26;5.00;100.00
60473;DHT22;46318;52.716;6.444;2024-01-30T02:13:53;5.00;100.00
60473;DHT22;46318;52.716;6.444;2024-01-30T02:16:18;5.00;100.00
60473;DHT22;46318;52.716;6.444;2024-01-30T02:18:44;5.00;100.00
60473;DHT22;46318;52.716;6.444;2024-01-30T02:21:16;5.00;100.00
60473;DHT22;46318;52.716;6.444;2024-01-30T02:23:43;5.00;100.00
60473;DHT22;46318;52.716;6.444;2024-01-30T02:26:10;4.90;100.00
60473;DHT22;46318;52.716;6.444;2024-01-30T02:28:37;5.00;100.00
60473;DHT22;46318;52.716;6.444;2024-01-30T02:31:04;5.00;100.00
60473;DHT22;46318;52.716;6.444;2024-01-30T02:33:29;5.00;100.00
60473;DHT22;46318;52.716;6.444;2024-01-30T02:35:55;5.00;100.00
60473;DHT22;46318;52.716;6.444;2024-01-30T02:38:21;5.00;100.00
60473;DHT22;46318;52.716;6.444;2024-01-30T02:41:06;5.00;100.00
60473;DHT22;46318;52.716;6.444;2024-01-30T02:43:51;5.00;100.00
60473;DHT22;46318;52.716;6.444;2024-01-30T02:46:16;5.00;100.00
60473;DHT22;46318;52.716;6.444;2024-01-30T02:48:43;5.00;100.00
60473;DHT22;46318;52.716;6.444;2024-01-30T02:51:09;5.00;100.00
60473;DHT22;46318;52.716;6.444;2024-01-30T02:53:35;5.00;100.00
60473;DHT22;46318;52.716;6.444;2024-01-30T02:56:02;5.00;100.00
60473;DHT22;46318;52.716;6.444;2024-01-30T02:58:28;5.00;100.00
60473;DHT22;46318;52.716;6.444;2024-01-30T03:00:54;5.00;100.00
60473;DHT22;46318;52.716;6.444;2024-01-30T03:03:20;5.00;100.00
60473;DHT22;46318;52.716;6.444;2024-01-30T03:05:46;5.00;100.00
60473;DHT22;46318;52.716;6.444;2024-01-30T03:08:12;5.00;100.00
60473;DHT22;46318;52.716;6.444;2024-01-30T03:10:37;4.90;100.00
60473;DHT22;46318;52.716;6.444;2024-01-30T03:13:03;4.90;100.00
60473;DHT22;46318;52.716;6.444;2024-01-30T03:15:29;4.90;100.00
60473;DHT22;46318;52.716;6.444;2024-01-30T03:17:55;4.90;100.00
60473;DHT22;46318;52.716;6.444;2024-01-30T03:20:21;4.80;100.00
60473;DHT22;46318;52.716;6.444;2024-01-30T03:22:47;4.90;100.00
60473;DHT22;46318;52.716;6.444;2024-01-30T03:25:13;4.80;100.00
60473;DHT22;46318;52.716;6.444;2024-01-30T03:27:38;4.80;100.00
60473;DHT22;46318;52.716;6.444;2024-01-30T03:30:05;4.80;100.00
60473;DHT22;46318;52.716;6.444;2024-01-30T03:32:31;4.90;100.00
60473;DHT22;46318;52.716;6.444;2024-01-30T03:34:57;4.80;100.00
60473;DHT22;46318;52.716;6.444;2024-01-30T03:37:23;4.80;100.00
60473;DHT22;46318;52.716;6.444;2024-01-30T03:39:49;4.80;100.00
60473;DHT22;46318;52.716;6.444;2024-01-30T03:42:15;4.90;100.00
60473;DHT22;46318;52.716;6.444;2024-01-30T03:44:44;4.80;100.00
60473;DHT22;46318;52.716;6.444;2024-01-30T03:47:10;4.90;100.00
60473;DHT22;46318;52.716;6.444;2024-01-30T03:49:36;4.90;100.00
60473;DHT22;46318;52.716;6.444;2024-01-30T03:52:01;4.90;100.00
60473;DHT22;46318;52.716;6.444;2024-01-30T03:54:27;5.00;100.00
60473;DHT22;46318;52.716;6.444;2024-01-30T03:56:53;5.00;100.00
60473;DHT22;46318;52.716;6.444;2024-01-30T03:59:19;5.00;100.00
60473;DHT22;46318;52.716;6.444;2024-01-30T04:01:50;5.00;100.00
60473;DHT22;46318;52.716;6.444;2024-01-30T04:04:20;5.00;100.00
60473;DHT22;46318;52.716;6.444;2024-01-30T04:06:46;5.00;100.00
60473;DHT22;46318;52.716;6.444;2024-01-30T04:09:13;5.10;100.00
60473;DHT22;46318;52.716;6.444;2024-01-30T04:11:39;5.10;100.00
60473;DHT22;46318;52.716;6.444;2024-01-30T04:14:05;5.10;100.00
60473;DHT22;46318;52.716;6.444;2024-01-30T04:16:31;5.10;100.00
60473;DHT22;46318;52.716;6.444;2024-01-30T04:18:58;5.10;100.00
60473;DHT22;46318;52.716;6.444;2024-01-30T04:21:24;5.10;100.00
60473;DHT22;46318;52.716;6.444;2024-01-30T04:23:51;5.20;100.00
60473;DHT22;46318;52.716;6.444;2024-01-30T04:26:17;5.20;100.00
60473;DHT22;46318;52.716;6.444;2024-01-30T04:28:46;5.20;100.00
60473;DHT22;46318;52.716;6.444;2024-01-30T04:31:12;5.20;100.00
60473;DHT22;46318;52.716;6.444;2024-01-30T04:33:37;5.20;100.00
60473;DHT22;46318;52.716;6.444;2024-01-30T04:36:04;5.30;100.00
60473;DHT22;46318;52.716;6.444;2024-01-30T04:38:31;5.20;100.00
60473;DHT22;46318;52.716;6.444;2024-01-30T04:40:57;5.30;100.00
60473;DHT22;46318;52.716;6.444;2024-01-30T04:43:22;5.30;100.00
60473;DHT22;46318;52.716;6.444;2024-01-30T04:45:49;5.30;100.00
60473;DHT22;46318;52.716;6.444;2024-01-30T04:48:15;5.30;100.00
60473;DHT22;46318;52.716;6.444;2024-01-30T04:50:41;5.40;100.00
60473;DHT22;46318;52.716;6.444;2024-01-30T04:53:10;5.40;100.00
60473;DHT22;46318;52.716;6.444;2024-01-30T04:55:36;5.40;100.00
60473;DHT22;46318;52.716;6.444;2024-01-30T04:58:02;5.40;100.00
60473;DHT22;46318;52.716;6.444;2024-01-30T05:00:27;5.50;100.00
60473;DHT22;46318;52.716;6.444;2024-01-30T05:02:55;5.40;100.00
60473;DHT22;46318;52.716;6.444;2024-01-30T05:05:21;5.50;100.00
60473;DHT22;46318;52.716;6.444;2024-01-30T05:07:47;5.50;100.00
60473;DHT22;46318;52.716;6.444;2024-01-30T05:10:13;5.50;100.00
60473;DHT22;46318;52.716;6.444;2024-01-30T05:12:40;5.50;100.00
60473;DHT22;46318;52.716;6.444;2024-01-30T05:15:06;5.50;100.00
60473;DHT22;46318;52.716;6.444;2024-01-30T05:17:32;5.60;100.00
60473;DHT22;46318;52.716;6.444;2024-01-30T05:19:58;5.60;100.00
60473;DHT22;46318;52.716;6.444;2024-01-30T05:22:24;5.60;100.00
60473;DHT22;46318;52.716;6.444;2024-01-30T05:24:50;5.60;100.00
60473;DHT22;46318;52.716;6.444;2024-01-30T05:27:16;5.60;100.00
60473;DHT22;46318;52.716;6.444;2024-01-30T05:29:41;5.70;100.00
60473;DHT22;46318;52.716;6.444;2024-01-30T05:32:07;5.70;100.00
60473;DHT22;46318;52.716;6.444;2024-01-30T05:34:33;5.70;100.00
60473;DHT22;46318;52.716;6.444;2024-01-30T05:36:59;5.70;100.00
60473;DHT22;46318;52.716;6.444;2024-01-30T05:39:24;5.80;100.00
60473;DHT22;46318;52.716;6.444;2024-01-30T05:41:50;5.80;100.00
60473;DHT22;46318;52.716;6.444;2024-01-30T05:44:16;5.80;100.00
60473;DHT22;46318;52.716;6.444;2024-01-30T05:46:42;5.80;100.00
60473;DHT22;46318;52.716;6.444;2024-01-30T05:49:07;5.80;100.00
60473;DHT22;46318;52.716;6.444;2024-01-30T05:51:33;5.90;100.00
60473;DHT22;46318;52.716;6.444;2024-01-30T05:53:59;5.90;100.00
60473;DHT22;46318;52.716;6.444;2024-01-30T05:56:25;5.90;100.00
60473;DHT22;46318;52.716;6.444;2024-01-30T05:58:50;5.90;100.00
60473;DHT22;46318;52.716;6.444;2024-01-30T06:01:16;6.00;100.00
60473;DHT22;46318;52.716;6.444;2024-01-30T06:03:43;6.00;100.00
60473;DHT22;46318;52.716;6.444;2024-01-30T06:06:09;6.00;100.00
60473;DHT22;46318;52.716;6.444;2024-01-30T06:08:35;6.10;100.00
60473;DHT22;46318;52.716;6.444;2024-01-30T06:11:01;6.10;100.00
60473;DHT22;46318;52.716;6.444;2024-01-30T06:13:26;6.20;100.00
60473;DHT22;46318;52.716;6.444;2024-01-30T06:15:52;6.20;100.00
60473;DHT22;46318;52.716;6.444;2024-01-30T06:18:18;6.30;100.00
60473;DHT22;46318;52.716;6.444;2024-01-30T06:20:44;6.30;100.00
60473;DHT22;46318;52.716;6.444;2024-01-30T06:23:10;6.30;100.00
60473;DHT22;46318;52.716;6.444;2024-01-30T06:25:36;6.40;100.00
60473;DHT22;46318;52.716;6.444;2024-01-30T06:28:01;6.40;100.00
60473;DHT22;46318;52.716;6.444;2024-01-30T06:30:27;6.30;100.00
60473;DHT22;46318;52.716;6.444;2024-01-30T06:32:53;6.40;100.00
60473;DHT22;46318;52.716;6.444;2024-01-30T06:35:19;6.40;100.00
60473;DHT22;46318;52.716;6.444;2024-01-30T06:37:45;6.40;100.00
60473;DHT22;46318;52.716;6.444;2024-01-30T06:40:11;6.40;100.00
60473;DHT22;46318;52.716;6.444;2024-01-30T06:42:37;6.40;100.00
60473;DHT22;46318;52.716;6.444;2024-01-30T06:45:03;6.50;100.00
60473;DHT22;46318;52.716;6.444;2024-01-30T06:47:29;6.50;100.00
60473;DHT22;46318;52.716;6.444;2024-01-30T06:49:56;6.50;100.00
60473;DHT22;46318;52.716;6.444;2024-01-30T06:52:22;6.50;100.00
60473;DHT22;46318;52.716;6.444;2024-01-30T06:54:50;6.50;100.00
60473;DHT22;46318;52.716;6.444;2024-01-30T06:57:16;6.50;100.00
60473;DHT22;46318;52.716;6.444;2024-01-30T06:59:41;6.50;100.00
60473;DHT22;46318;52.716;6.444;2024-01-30T07:02:09;6.50;100.00
60473;DHT22;46318;52.716;6.444;2024-01-30T07:04:36;6.50;100.00
60473;DHT22;46318;52.716;6.444;2024-01-30T07:07:03;6.50;100.00
60473;DHT22;46318;52.716;6.444;2024-01-30T07:09:31;6.50;100.00
60473;DHT22;46318;52.716;6.444;2024-01-30T07:11:56;6.50;100.00
60473;DHT22;46318;52.716;6.444;2024-01-30T07:14:24;6.50;100.00
60473;DHT22;46318;52.716;6.444;2024-01-30T07:16:50;6.50;100.00
60473;DHT22;46318;52.716;6.444;2024-01-30T07:19:16;6.60;100.00
60473;DHT22;46318;52.716;6.444;2024-01-30T07:21:42;6.60;100.00
60473;DHT22;46318;52.716;6.444;2024-01-30T07:24:08;6.60;100.00
60473;DHT22;46318;52.716;6.444;2024-01-30T07:26:33;6.70;100.00
60473;DHT22;46318;52.716;6.444;2024-01-30T07:29:01;6.70;100.00
60473;DHT22;46318;52.716;6.444;2024-01-30T07:31:27;6.70;100.00
60473;DHT22;46318;52.716;6.444;2024-01-30T07:33:52;6.70;100.00
60473;DHT22;46318;52.716;6.444;2024-01-30T07:36:19;6.70;100.00
60473;DHT22;46318;52.716;6.444;2024-01-30T07:38:45;6.80;100.00
60473;DHT22;46318;52.716;6.444;2024-01-30T07:41:11;6.80;100.00
60473;DHT22;46318;52.716;6.444;2024-01-30T07:43:38;6.80;100.00
60473;DHT22;46318;52.716;6.444;2024-01-30T07:46:04;6.80;100.00
60473;DHT22;46318;52.716;6.444;2024-01-30T07:48:32;6.80;100.00
60473;DHT22;46318;52.716;6.444;2024-01-30T07:50:59;6.80;100.00
60473;DHT22;46318;52.716;6.444;2024-01-30T07:53:25;6.90;100.00
60473;DHT22;46318;52.716;6.444;2024-01-30T07:55:52;6.90;100.00
60473;DHT22;46318;52.716;6.444;2024-01-30T07:58:18;6.90;100.00
60473;DHT22;46318;52.716;6.444;2024-01-30T08:00:44;6.90;100.00
60473;DHT22;46318;52.716;6.444;2024-01-30T08:03:10;7.00;100.00
60473;DHT22;46318;52.716;6.444;2024-01-30T08:05:36;7.00;100.00
60473;DHT22;46318;52.716;6.444;2024-01-30T08:08:03;7.00;100.00
60473;DHT22;46318;52.716;6.444;2024-01-30T08:10:29;7.00;100.00
60473;DHT22;46318;52.716;6.444;2024-01-30T08:12:55;7.10;100.00
60473;DHT22;46318;52.716;6.444;2024-01-30T08:15:20;7.20;100.00
60473;DHT22;46318;52.716;6.444;2024-01-30T08:17:46;7.10;100.00
60473;DHT22;46318;52.716;6.444;2024-01-30T08:20:12;7.20;100.00
60473;DHT22;46318;52.716;6.444;2024-01-30T08:22:39;7.20;100.00
60473;DHT22;46318;52.716;6.444;2024-01-30T08:25:06;7.20;100.00
60473;DHT22;46318;52.716;6.444;2024-01-30T08:27:33;7.20;100.00
60473;DHT22;46318;52.716;6.444;2024-01-30T08:30:01;7.20;100.00
60473;DHT22;46318;52.716;6.444;2024-01-30T08:32:27;7.30;100.00
60473;DHT22;46318;52.716;6.444;2024-01-30T08:34:53;7.30;100.00
60473;DHT22;46318;52.716;6.444;2024-01-30T08:37:19;7.30;100.00
60473;DHT22;46318;52.716;6.444;2024-01-30T08:39:44;7.30;100.00
60473;DHT22;46318;52.716;6.444;2024-01-30T08:42:10;7.40;100.00
60473;DHT22;46318;52.716;6.444;2024-01-30T08:44:36;7.40;100.00
60473;DHT22;46318;52.716;6.444;2024-01-30T08:47:02;7.40;100.00
60473;DHT22;46318;52.716;6.444;2024-01-30T08:49:28;7.40;100.00
60473;DHT22;46318;52.716;6.444;2024-01-30T08:51:54;7.40;100.00
60473;DHT22;46318;52.716;6.444;2024-01-30T08:54:20;7.50;100.00
60473;DHT22;46318;52.716;6.444;2024-01-30T08:56:45;7.50;100.00
60473;DHT22;46318;52.716;6.444;2024-01-30T08:59:11;7.50;100.00
60473;DHT22;46318;52.716;6.444;2024-01-30T09:01:37;7.60;100.00
60473;DHT22;46318;52.716;6.444;2024-01-30T09:04:03;7.60;100.00
60473;DHT22;46318;52.716;6.444;2024-01-30T09:06:29;7.60;100.00
60473;DHT22;46318;52.716;6.444;2024-01-30T09:08:54;7.60;100.00
60473;DHT22;46318;52.716;6.444;2024-01-30T09:11:20;7.60;100.00
60473;DHT22;46318;52.716;6.444;2024-01-30T09:13:46;7.70;100.00
60473;DHT22;46318;52.716;6.444;2024-01-30T09:16:12;7.70;100.00
60473;DHT22;46318;52.716;6.444;2024-01-30T09:18:39;7.70;100.00
60473;DHT22;46318;52.716;6.444;2024-01-30T09:21:05;7.80;100.00
60473;DHT22;46318;52.716;6.444;2024-01-30T09:23:30;7.80;100.00
60473;DHT22;46318;52.716;6.444;2024-01-30T09:25:56;7.90;100.00
60473;DHT22;46318;52.716;6.444;2024-01-30T09:28:22;7.90;100.00
60473;DHT22;46318;52.716;6.444;2024-01-30T09:30:48;8.00;100.00
60473;DHT22;46318;52.716;6.444;2024-01-30T09:33:13;8.00;100.00
60473;DHT22;46318;52.716;6.444;2024-01-30T09:35:39;8.00;100.00
60473;DHT22;46318;52.716;6.444;2024-01-30T09:38:05;8.10;100.00
60473;DHT22;46318;52.716;6.444;2024-01-30T09:40:31;8.10;100.00
60473;DHT22;46318;52.716;6.444;2024-01-30T09:42:58;8.10;100.00
60473;DHT22;46318;52.716;6.444;2024-01-30T09:45:27;8.10;100.00
60473;DHT22;46318;52.716;6.444;2024-01-30T09:47:53;8.20;100.00
60473;DHT22;46318;52.716;6.444;2024-01-30T09:50:19;8.20;100.00
60473;DHT22;46318;52.716;6.444;2024-01-30T09:52:46;8.20;100.00
60473;DHT22;46318;52.716;6.444;2024-01-30T09:55:13;8.30;100.00
60473;DHT22;46318;52.716;6.444;2024-01-30T09:57:39;8.40;100.00
60473;DHT22;46318;52.716;6.444;2024-01-30T10:00:07;8.40;100.00
60473;DHT22;46318;52.716;6.444;2024-01-30T10:02:34;8.40;100.00
60473;DHT22;46318;52.716;6.444;2024-01-30T10:05:00;8.50;100.00
60473;DHT22;46318;52.716;6.444;2024-01-30T10:07:26;8.50;100.00
60473;DHT22;46318;52.716;6.444;2024-01-30T10:09:55;8.50;100.00
60473;DHT22;46318;52.716;6.444;2024-01-30T10:12:22;8.60;100.00
60473;DHT22;46318;52.716;6.444;2024-01-30T10:14:49;8.60;100.00
60473;DHT22;46318;52.716;6.444;2024-01-30T10:17:14;8.60;100.00
60473;DHT22;46318;52.716;6.444;2024-01-30T10:19:41;8.70;100.00
60473;DHT22;46318;52.716;6.444;2024-01-30T10:22:08;8.70;100.00
60473;DHT22;46318;52.716;6.444;2024-01-30T10:24:35;8.70;100.00
60473;DHT22;46318;52.716;6.444;2024-01-30T10:27:02;8.70;100.00
60473;DHT22;46318;52.716;6.444;2024-01-30T10:29:28;8.80;100.00
60473;DHT22;46318;52.716;6.444;2024-01-30T10:32:01;8.80;100.00
60473;DHT22;46318;52.716;6.444;2024-01-30T10:34:28;8.90;100.00
60473;DHT22;46318;52.716;6.444;2024-01-30T10:37:07;8.90;100.00
60473;DHT22;46318;52.716;6.444;2024-01-30T10:39:43;8.90;100.00
60473;DHT22;46318;52.716;6.444;2024-01-30T10:42:15;9.00;100.00
60473;DHT22;46318;52.716;6.444;2024-01-30T10:47:35;9.00;100.00
60473;DHT22;46318;52.716;6.444;2024-01-30T10:50:05;9.10;100.00
60473;DHT22;46318;52.716;6.444;2024-01-30T10:52:32;9.10;100.00
60473;DHT22;46318;52.716;6.444;2024-01-30T10:54:58;9.20;100.00
60473;DHT22;46318;52.716;6.444;2024-01-30T10:57:26;9.20;100.00
60473;DHT22;46318;52.716;6.444;2024-01-30T11:00:12;9.20;100.00
60473;DHT22;46318;52.716;6.444;2024-01-30T11:02:43;9.30;100.00
60473;DHT22;46318;52.716;6.444;2024-01-30T11:05:10;9.30;100.00
60473;DHT22;46318;52.716;6.444;2024-01-30T11:07:39;9.30;100.00
60473;DHT22;46318;52.716;6.444;2024-01-30T11:10:08;9.30;100.00
60473;DHT22;46318;52.716;6.444;2024-01-30T11:12:39;9.30;100.00
60473;DHT22;46318;52.716;6.444;2024-01-30T11:15:08;9.40;100.00
60473;DHT22;46318;52.716;6.444;2024-01-30T11:20:20;9.40;100.00
60473;DHT22;46318;52.716;6.444;2024-01-30T11:22:56;9.40;100.00
60473;DHT22;46318;52.716;6.444;2024-01-30T11:25:23;9.50;100.00
60473;DHT22;46318;52.716;6.444;2024-01-30T11:27:53;9.50;100.00
60473;DHT22;46318;52.716;6.444;2024-01-30T11:30:30;9.60;100.00
60473;DHT22;46318;52.716;6.444;2024-01-30T11:35:36;9.70;100.00
60473;DHT22;46318;52.716;6.444;2024-01-30T11:38:06;9.70;100.00
60473;DHT22;46318;52.716;6.444;2024-01-30T11:40:34;9.70;100.00
60473;DHT22;46318;52.716;6.444;2024-01-30T11:43:01;9.70;100.00
60473;DHT22;46318;52.716;6.444;2024-01-30T11:45:28;9.80;100.00
60473;DHT22;46318;52.716;6.444;2024-01-30T11:47:54;9.80;100.00
60473;DHT22;46318;52.716;6.444;2024-01-30T11:50:21;9.80;100.00
60473;DHT22;46318;52.716;6.444;2024-01-30T11:52:48;9.80;100.00
60473;DHT22;46318;52.716;6.444;2024-01-30T11:55:14;9.90;100.00
60473;DHT22;46318;52.716;6.444;2024-01-30T11:57:41;9.90;100.00
60473;DHT22;46318;52.716;6.444;2024-01-30T12:00:14;10.00;100.00
60473;DHT22;46318;52.716;6.444;2024-01-30T12:02:43;10.00;100.00
60473;DHT22;46318;52.716;6.444;2024-01-30T12:05:09;10.00;100.00
60473;DHT22;46318;52.716;6.444;2024-01-30T12:07:36;10.00;100.00
60473;DHT22;46318;52.716;6.444;2024-01-30T12:10:02;10.10;100.00
60473;DHT22;46318;52.716;6.444;2024-01-30T12:12:29;10.20;100.00
60473;DHT22;46318;52.716;6.444;2024-01-30T12:14:56;10.20;100.00
60473;DHT22;46318;52.716;6.444;2024-01-30T12:17:29;10.20;100.00
60473;DHT22;46318;52.716;6.444;2024-01-30T12:22:29;10.20;100.00
60473;DHT22;46318;52.716;6.444;2024-01-30T12:24:55;10.20;100.00
60473;DHT22;46318;52.716;6.444;2024-01-30T12:27:21;10.20;100.00
60473;DHT22;46318;52.716;6.444;2024-01-30T12:29:47;10.20;100.00
60473;DHT22;46318;52.716;6.444;2024-01-30T12:32:16;10.20;100.00
60473;DHT22;46318;52.716;6.444;2024-01-30T12:34:42;10.20;99.80
60473;DHT22;46318;52.716;6.444;2024-01-30T12:37:08;10.20;99.40
60473;DHT22;46318;52.716;6.444;2024-01-30T12:39:35;10.20;99.30
60473;DHT22;46318;52.716;6.444;2024-01-30T12:42:01;10.20;99.40
60473;DHT22;46318;52.716;6.444;2024-01-30T12:44:28;10.20;99.30
60473;DHT22;46318;52.716;6.444;2024-01-30T12:46:54;10.20;98.90
60473;DHT22;46318;52.716;6.444;2024-01-30T12:49:20;10.20;99.10
60473;DHT22;46318;52.716;6.444;2024-01-30T12:51:46;10.10;98.60
60473;DHT22;46318;52.716;6.444;2024-01-30T12:54:12;10.10;98.80
60473;DHT22;46318;52.716;6.444;2024-01-30T12:56:38;10.10;98.40
60473;DHT22;46318;52.716;6.444;2024-01-30T12:59:04;10.10;97.50
60473;DHT22;46318;52.716;6.444;2024-01-30T13:01:30;10.00;97.30
60473;DHT22;46318;52.716;6.444;2024-01-30T13:03:56;10.00;97.00
60473;DHT22;46318;52.716;6.444;2024-01-30T13:06:23;10.00;96.60
60473;DHT22;46318;52.716;6.444;2024-01-30T13:08:49;10.00;96.50
60473;DHT22;46318;52.716;6.444;2024-01-30T13:11:15;10.00;96.40
60473;DHT22;46318;52.716;6.444;2024-01-30T13:13:41;10.00;96.20
60473;DHT22;46318;52.716;6.444;2024-01-30T13:16:07;10.00;96.20
60473;DHT22;46318;52.716;6.444;2024-01-30T13:18:32;10.00;96.30
60473;DHT22;46318;52.716;6.444;2024-01-30T13:20:58;10.00;95.70
60473;DHT22;46318;52.716;6.444;2024-01-30T13:23:24;9.90;95.60
60473;DHT22;46318;52.716;6.444;2024-01-30T13:25:50;9.90;95.80
60473;DHT22;46318;52.716;6.444;2024-01-30T13:28:15;9.90;95.70
60473;DHT22;46318;52.716;6.444;2024-01-30T13:30:41;9.90;96.00
60473;DHT22;46318;52.716;6.444;2024-01-30T13:33:07;9.90;95.50
60473;DHT22;46318;52.716;6.444;2024-01-30T13:35:33;9.80;95.30
60473;DHT22;46318;52.716;6.444;2024-01-30T13:37:59;9.80;94.90
60473;DHT22;46318;52.716;6.444;2024-01-30T13:40:24;9.70;95.10
60473;DHT22;46318;52.716;6.444;2024-01-30T13:42:50;9.70;95.30
60473;DHT22;46318;52.716;6.444;2024-01-30T13:45:16;9.70;95.60
60473;DHT22;46318;52.716;6.444;2024-01-30T13:47:42;9.70;95.80
60473;DHT22;46318;52.716;6.444;2024-01-30T13:50:08;9.60;96.10
60473;DHT22;46318;52.716;6.444;2024-01-30T13:52:34;9.60;96.10
60473;DHT22;46318;52.716;6.444;2024-01-30T13:55:00;9.60;96.00
60473;DHT22;46318;52.716;6.444;2024-01-30T13:57:29;9.60;96.30
60473;DHT22;46318;52.716;6.444;2024-01-30T13:59:58;9.60;96.40
60473;DHT22;46318;52.716;6.444;2024-01-30T14:02:24;9.50;96.30
60473;DHT22;46318;52.716;6.444;2024-01-30T14:04:50;9.50;96.80
60473;DHT22;46318;52.716;6.444;2024-01-30T14:07:15;9.50;96.80
60473;DHT22;46318;52.716;6.444;2024-01-30T14:09:44;9.50;96.80
60473;DHT22;46318;52.716;6.444;2024-01-30T14:12:10;9.50;96.70
60473;DHT22;46318;52.716;6.444;2024-01-30T14:14:38;9.50;96.70
60473;DHT22;46318;52.716;6.444;2024-01-30T14:17:04;9.50;96.60
60473;DHT22;46318;52.716;6.444;2024-01-30T14:19:33;9.50;96.20
60473;DHT22;46318;52.716;6.444;2024-01-30T14:22:00;9.50;96.20
60473;DHT22;46318;52.716;6.444;2024-01-30T14:24:26;9.50;96.10
60473;DHT22;46318;52.716;6.444;2024-01-30T14:26:52;9.50;96.20
60473;DHT22;46318;52.716;6.444;2024-01-30T14:29:18;9.50;96.00
60473;DHT22;46318;52.716;6.444;2024-01-30T14:31:44;9.50;95.70
60473;DHT22;46318;52.716;6.444;2024-01-30T14:34:10;9.50;95.70
60473;DHT22;46318;52.716;6.444;2024-01-30T14:36:39;9.50;96.60
60473;DHT22;46318;52.716;6.444;2024-01-30T14:39:05;9.50;96.60
60473;DHT22;46318;52.716;6.444;2024-01-30T14:41:32;9.40;96.60
60473;DHT22;46318;52.716;6.444;2024-01-30T14:43:58;9.40;97.00
60473;DHT22;46318;52.716;6.444;2024-01-30T14:46:24;9.40;96.60
60473;DHT22;46318;52.716;6.444;2024-01-30T14:48:54;9.40;96.60
60473;DHT22;46318;52.716;6.444;2024-01-30T14:51:20;9.40;97.30
60473;DHT22;46318;52.716;6.444;2024-01-30T14:53:46;9.40;97.50
60473;DHT22;46318;52.716;6.444;2024-01-30T14:56:12;9.40;97.80
60473;DHT22;46318;52.716;6.444;2024-01-30T14:58:38;9.30;97.90
60473;DHT22;46318;52.716;6.444;2024-01-30T15:01:04;9.30;98.50
60473;DHT22;46318;52.716;6.444;2024-01-30T15:03:30;9.30;98.40
60473;DHT22;46318;52.716;6.444;2024-01-30T15:05:55;9.20;98.80
60473;DHT22;46318;52.716;6.444;2024-01-30T15:08:22;9.20;99.00
60473;DHT22;46318;52.716;6.444;2024-01-30T15:10:47;9.20;99.30
60473;DHT22;46318;52.716;6.444;2024-01-30T15:13:13;9.10;99.50
60473;DHT22;46318;52.716;6.444;2024-01-30T15:15:41;9.10;99.70
60473;DHT22;46318;52.716;6.444;2024-01-30T15:18:08;9.10;99.90
60473;DHT22;46318;52.716;6.444;2024-01-30T15:20:36;9.10;100.00
60473;DHT22;46318;52.716;6.444;2024-01-30T15:23:02;9.00;100.00
60473;DHT22;46318;52.716;6.444;2024-01-30T15:25:28;9.00;100.00
60473;DHT22;46318;52.716;6.444;2024-01-30T15:27:54;9.00;100.00
60473;DHT22;46318;52.716;6.444;2024-01-30T15:30:20;9.00;100.00
60473;DHT22;46318;52.716;6.444;2024-01-30T15:32:46;9.00;100.00
60473;DHT22;46318;52.716;6.444;2024-01-30T15:35:12;9.00;100.00
60473;DHT22;46318;52.716;6.444;2024-01-30T15:37:38;9.00;100.00
60473;DHT22;46318;52.716;6.444;2024-01-30T15:40:05;9.00;100.00